Time;durP1;ratioP1;P1;durP2;ratioP2;P2;SDS_P1;SDS_P2;PMS_P1;PMS_P2;Temp;Humidity;BMP_temperature;BMP_pressure;BME280_temperature;BME280_humidity;BME280_pressure;Samples;Min_cycle;Max_cycle;Signal;HPM_P1;HPM_P2
2024/04/05 00:00:51;;;;;;;0.50;0.45;;;11.00;36.80;;;;;;4979131;28;20035;-77
2024/04/05 00:03:18;;;;;;;14.90;0.50;;;11.00;25.00;;;;;;4976721;28;20029;-77
2024/04/05 00:05:44;;;;;;;0.15;0.15;;;11.00;14.00;;;;;;4978777;28;20039;-75
2024/04/05 00:08:10;;;;;;;0.13;0.13;;;11.00;1.60;;;;;;4980414;28;20379;-75
2024/04/05 00:10:36;;;;;;;4.13;1.65;;;11.00;1.00;;;;;;4982423;28;20030;-76
2024/04/05 00:13:02;;;;;;;0.40;0.40;;;11.00;1.00;;;;;;4979980;28;20371;-82
2024/04/05 00:15:29;;;;;;;0.13;0.13;;;11.00;1.00;;;;;;4981353;28;20030;-75
2024/04/05 00:17:55;;;;;;;0.73;0.55;;;11.10;1.00;;;;;;4980454;28;20038;-75
2024/04/05 00:20:21;;;;;;;0.20;0.20;;;11.00;1.00;;;;;;4983522;28;20034;-75
2024/04/05 00:22:47;;;;;;;0.90;0.90;;;11.00;1.00;;;;;;4980559;28;20038;-75
2024/04/05 00:25:15;;;;;;;1.50;1.08;;;11.00;1.00;;;;;;4982836;28;20360;-76
2024/04/05 00:27:41;;;;;;;0.20;0.20;;;11.10;1.00;;;;;;4981439;28;20027;-75
2024/04/05 00:30:08;;;;;;;1.83;0.45;;;11.10;1.00;;;;;;4982384;28;20034;-78
2024/04/05 00:32:35;;;;;;;0.40;0.40;;;11.10;1.00;;;;;;4976769;28;20031;-75
2024/04/05 00:35:01;;;;;;;0.10;0.10;;;11.10;1.00;;;;;;4978049;28;20041;-75
2024/04/05 00:37:27;;;;;;;0.32;0.32;;;11.10;1.00;;;;;;4983033;28;20026;-75
2024/04/05 00:39:54;;;;;;;0.10;0.10;;;11.10;1.00;;;;;;4979852;28;20419;-75
2024/04/05 00:42:20;;;;;;;0.10;0.10;;;11.20;1.00;;;;;;4983989;28;20035;-75
2024/04/05 00:44:46;;;;;;;0.95;0.95;;;11.20;1.00;;;;;;4986226;28;20035;-75
2024/04/05 00:47:12;;;;;;;0.30;0.30;;;11.20;1.00;;;;;;4984708;28;20031;-75
2024/04/05 00:49:38;;;;;;;0.10;0.10;;;11.20;1.00;;;;;;4983314;28;20035;-75
2024/04/05 00:52:05;;;;;;;0.88;0.88;;;11.20;1.00;;;;;;4971304;28;20046;-81
2024/04/05 00:54:32;;;;;;;0.40;0.30;;;11.20;1.00;;;;;;4972985;28;20361;-77
2024/04/05 00:56:58;;;;;;;0.30;0.30;;;11.20;1.00;;;;;;4973406;28;20332;-77
2024/04/05 00:59:26;;;;;;;0.43;0.43;;;11.20;1.00;;;;;;4973276;28;20043;-76
2024/04/05 01:01:53;;;;;;;0.70;0.70;;;11.30;1.00;;;;;;4973169;28;20033;-77
2024/04/05 01:04:19;;;;;;;0.35;0.30;;;11.30;1.00;;;;;;4974209;28;20058;-77
2024/04/05 01:06:45;;;;;;;2.72;0.75;;;11.30;1.00;;;;;;4974168;28;20107;-77
2024/04/05 01:09:12;;;;;;;0.40;0.40;;;11.30;1.00;;;;;;4975738;28;20031;-77
2024/04/05 01:11:38;;;;;;;0.20;0.20;;;11.30;1.00;;;;;;4977152;28;20038;-77
2024/04/05 01:14:04;;;;;;;0.30;0.30;;;11.30;1.00;;;;;;4976266;28;20027;-77
2024/04/05 01:16:31;;;;;;;0.52;0.43;;;11.30;1.00;;;;;;4975389;28;20027;-78
2024/04/05 01:18:57;;;;;;;1.17;0.47;;;11.30;1.00;;;;;;4968374;28;20047;-78
2024/04/05 01:21:24;;;;;;;1.17;0.63;;;11.30;1.00;;;;;;4957927;28;20042;-76
2024/04/05 01:23:50;;;;;;;0.63;0.63;;;11.40;1.00;;;;;;4958502;28;20046;-77
2024/04/05 01:26:16;;;;;;;0.95;0.63;;;11.40;1.00;;;;;;4954961;28;20023;-77
2024/04/05 01:28:42;;;;;;;0.40;0.22;;;11.40;1.00;;;;;;4956342;28;20035;-77
2024/04/05 01:31:08;;;;;;;0.40;0.40;;;11.40;1.00;;;;;;4954056;28;20039;-83
2024/04/05 01:33:34;;;;;;;0.63;0.63;;;11.40;1.00;;;;;;4959886;28;20042;-77
2024/04/05 01:36:01;;;;;;;0.43;0.43;;;11.40;1.00;;;;;;4959933;28;20031;-77
2024/04/05 01:38:27;;;;;;;0.20;0.20;;;11.40;1.00;;;;;;4961386;28;20027;-77
2024/04/05 01:40:53;;;;;;;0.20;0.20;;;11.40;1.00;;;;;;4962345;28;20050;-78
2024/04/05 01:43:19;;;;;;;0.43;0.43;;;11.40;1.00;;;;;;4959233;28;20043;-78
2024/04/05 01:45:45;;;;;;;0.25;0.25;;;11.40;1.00;;;;;;4947971;28;20031;-77
2024/04/05 01:48:11;;;;;;;0.20;0.20;;;11.40;1.00;;;;;;4960954;28;20031;-80
2024/04/05 01:50:38;;;;;;;0.30;0.30;;;11.40;1.00;;;;;;4967859;28;20031;-78
2024/04/05 01:53:04;;;;;;;2.15;1.13;;;11.40;1.00;;;;;;4955703;28;20041;-77
2024/04/05 01:55:32;;;;;;;6.20;2.10;;;11.40;1.00;;;;;;4967431;28;20376;-77
2024/04/05 01:57:58;;;;;;;1.08;0.55;;;11.50;1.00;;;;;;4950273;28;20050;-77
2024/04/05 02:00:24;;;;;;;0.10;0.10;;;11.50;1.00;;;;;;4948249;28;20488;-77
2024/04/05 02:02:52;;;;;;;0.32;0.32;;;11.50;1.00;;;;;;4964691;28;20043;-77
2024/04/05 02:05:18;;;;;;;0.47;0.47;;;11.50;1.00;;;;;;4966307;28;20022;-77
2024/04/05 02:07:44;;;;;;;0.40;0.40;;;11.50;1.00;;;;;;4950413;28;20034;-79
2024/04/05 02:10:10;;;;;;;3.17;0.95;;;11.60;1.00;;;;;;4961705;28;20043;-82
2024/04/05 02:12:36;;;;;;;0.15;0.15;;;11.60;1.00;;;;;;4954552;28;20038;-77
2024/04/05 02:15:03;;;;;;;0.30;0.30;;;11.60;1.00;;;;;;4958059;28;20027;-77
2024/04/05 02:17:29;;;;;;;0.35;0.25;;;11.60;1.00;;;;;;4956257;28;20027;-76
2024/04/05 02:19:55;;;;;;;0.20;0.20;;;11.60;1.00;;;;;;4974798;28;20039;-77
2024/04/05 02:22:21;;;;;;;0.25;0.25;;;11.60;1.00;;;;;;4975676;28;20058;-77
2024/04/05 02:24:47;;;;;;;3.70;1.55;;;11.60;1.00;;;;;;4978221;28;20030;-77
2024/04/05 02:27:16;;;;;;;0.15;0.15;;;11.60;1.00;;;;;;4976952;28;20034;-77
2024/04/05 02:29:42;;;;;;;1.23;1.23;;;11.60;1.00;;;;;;4982381;28;20027;-77
2024/04/05 02:32:08;;;;;;;0.40;0.20;;;11.60;1.00;;;;;;4977458;28;20379;-79
2024/04/05 02:34:34;;;;;;;2.08;0.32;;;11.60;1.00;;;;;;4977764;28;20038;-78
2024/04/05 02:37:00;;;;;;;0.30;0.30;;;11.50;1.00;;;;;;4979369;28;20041;-77
2024/04/05 02:39:26;;;;;;;4.65;1.27;;;11.60;1.00;;;;;;4978613;28;20034;-78
2024/04/05 02:41:53;;;;;;;1.30;0.70;;;11.60;1.00;;;;;;4981543;28;20030;-77
2024/04/05 02:44:23;;;;;;;1.75;1.15;;;11.50;1.00;;;;;;4980640;28;20043;-77
2024/04/05 02:46:49;;;;;;;0.57;0.50;;;11.50;1.00;;;;;;4981972;28;20042;-77
2024/04/05 02:49:15;;;;;;;0.30;0.30;;;11.60;1.00;;;;;;4981923;28;20031;-77
2024/04/05 02:51:41;;;;;;;0.32;0.32;;;11.60;1.00;;;;;;4981862;28;20383;-77
2024/04/05 02:54:07;;;;;;;0.15;0.15;;;11.60;1.00;;;;;;4982406;28;20030;-77
2024/04/05 02:56:34;;;;;;;1.02;1.00;;;11.70;1.00;;;;;;4978949;28;20497;-77
2024/04/05 02:59:01;;;;;;;0.13;0.13;;;11.60;1.00;;;;;;4980818;28;20033;-77
2024/04/05 03:01:27;;;;;;;0.60;0.60;;;11.70;1.00;;;;;;4981220;28;20041;-77
2024/04/05 03:03:53;;;;;;;2.10;0.90;;;11.70;1.00;;;;;;4980617;28;20047;-77
2024/04/05 03:06:20;;;;;;;2.67;1.38;;;11.70;1.00;;;;;;4984066;28;20027;-77
2024/04/05 03:08:46;;;;;;;4.95;1.80;;;11.80;99.90;;;;;;4983839;28;20106;-79
2024/04/05 03:11:12;;;;;;;0.80;0.80;;;11.80;99.90;;;;;;4985673;28;20034;-83
2024/04/05 03:13:40;;;;;;;0.10;0.10;;;11.80;99.90;;;;;;4981395;28;20034;-77
2024/04/05 03:16:06;;;;;;;0.63;0.63;;;11.80;99.90;;;;;;4978374;28;20030;-78
2024/04/05 03:18:32;;;;;;;0.82;0.40;;;11.80;99.90;;;;;;4969754;28;20606;-77
2024/04/05 03:20:59;;;;;;;0.43;0.43;;;11.80;99.90;;;;;;4962379;28;20053;-77
2024/04/05 03:23:25;;;;;;;0.90;0.70;;;11.80;99.90;;;;;;4963793;28;20464;-77
2024/04/05 03:25:51;;;;;;;0.30;0.30;;;11.70;99.90;;;;;;4968530;28;20061;-77
2024/04/05 03:28:18;;;;;;;0.68;0.68;;;11.70;99.90;;;;;;4966315;28;20035;-78
2024/04/05 03:30:44;;;;;;;0.15;0.15;;;11.70;99.90;;;;;;4962225;28;20035;-77
2024/04/05 03:33:10;;;;;;;1.17;0.70;;;11.60;99.90;;;;;;4959255;28;20019;-77
2024/04/05 03:35:37;;;;;;;0.73;0.73;;;11.70;99.90;;;;;;4954679;28;20023;-73
2024/04/05 03:38:04;;;;;;;0.43;0.43;;;11.60;99.90;;;;;;4958392;28;20027;-78
2024/04/05 03:40:30;;;;;;;0.38;0.38;;;11.60;1.00;;;;;;4952851;28;20039;-77
2024/04/05 03:42:56;;;;;;;0.20;0.20;;;11.60;1.00;;;;;;4955867;28;20043;-77
2024/04/05 03:45:23;;;;;;;0.52;0.38;;;11.60;1.00;;;;;;4954947;28;20030;-77
2024/04/05 03:47:49;;;;;;;1.13;1.13;;;11.60;1.00;;;;;;4956613;28;20027;-77
2024/04/05 03:50:15;;;;;;;0.30;0.30;;;11.60;1.00;;;;;;4957528;28;20043;-81
2024/04/05 03:52:42;;;;;;;0.13;0.13;;;11.60;1.00;;;;;;4958454;28;20042;-77
2024/04/05 03:55:08;;;;;;;4.47;0.73;;;11.60;1.00;;;;;;4959218;28;20031;-77
2024/04/05 03:57:36;;;;;;;0.30;0.30;;;11.60;1.00;;;;;;4956781;28;20043;-77
2024/04/05 04:00:04;;;;;;;6.70;1.13;;;11.70;1.00;;;;;;4958965;28;20047;-77
2024/04/05 04:02:37;;;;;;;0.35;0.30;;;11.60;1.00;;;;;;4962787;28;20042;-76
2024/04/05 04:05:04;;;;;;;2.17;0.77;;;11.60;1.00;;;;;;4959738;28;20027;-77
2024/04/05 04:07:30;;;;;;;0.32;0.20;;;11.60;1.00;;;;;;4940394;28;20031;-77
2024/04/05 04:09:57;;;;;;;5.68;1.23;;;11.50;1.00;;;;;;4959783;28;20031;-77
2024/04/05 04:12:23;;;;;;;0.40;0.40;;;11.50;1.00;;;;;;4959935;28;20038;-77
2024/04/05 04:14:49;;;;;;;1.00;1.00;;;11.60;1.00;;;;;;4962463;28;20047;-77
2024/04/05 04:17:15;;;;;;;0.10;0.10;;;11.60;1.00;;;;;;4962940;28;20031;-83
2024/04/05 04:19:41;;;;;;;0.20;0.20;;;11.60;1.00;;;;;;4963451;28;20082;-77
2024/04/05 04:22:09;;;;;;;0.30;0.30;;;11.70;1.00;;;;;;4960788;28;20043;-79
2024/04/05 04:24:35;;;;;;;2.30;0.45;;;11.70;1.00;;;;;;4961513;28;20610;-77
2024/04/05 04:27:02;;;;;;;0.20;0.20;;;11.70;99.90;;;;;;4960875;28;20034;-78
2024/04/05 04:29:30;;;;;;;0.63;0.60;;;11.60;99.90;;;;;;4963123;28;20039;-78
2024/04/05 04:31:56;;;;;;;0.80;0.80;;;11.60;99.90;;;;;;4960290;28;20020;-79
2024/04/05 04:34:23;;;;;;;1.25;1.15;;;11.50;99.90;;;;;;4962405;28;20033;-77
2024/04/05 04:36:49;;;;;;;0.20;0.20;;;11.50;1.00;;;;;;4963141;28;20038;-77
2024/04/05 04:39:16;;;;;;;0.73;0.73;;;11.50;1.00;;;;;;4963532;28;20027;-82
2024/04/05 04:41:43;;;;;;;0.73;0.30;;;11.40;1.00;;;;;;4966641;28;20041;-77
2024/04/05 04:44:09;;;;;;;0.57;0.57;;;11.40;1.00;;;;;;4960692;28;20031;-77
2024/04/05 04:46:35;;;;;;;1.67;1.58;;;11.40;1.00;;;;;;4961315;28;20070;-77
2024/04/05 04:49:01;;;;;;;12.98;0.50;;;11.30;1.00;;;;;;4967687;28;20027;-78
2024/04/05 04:51:28;;;;;;;0.10;0.10;;;11.30;1.00;;;;;;4962717;28;20624;-77
2024/04/05 04:53:54;;;;;;;0.20;0.20;;;11.30;1.00;;;;;;4951845;28;20035;-76
2024/04/05 04:56:21;;;;;;;0.70;0.32;;;11.30;1.00;;;;;;4953065;28;20476;-77
2024/04/05 04:58:48;;;;;;;0.43;0.38;;;11.30;1.00;;;;;;4954204;28;20038;-77
2024/04/05 05:01:15;;;;;;;0.52;0.52;;;11.30;1.00;;;;;;4954170;28;20050;-82
2024/04/05 05:03:41;;;;;;;0.25;0.25;;;11.40;1.00;;;;;;4953995;28;20023;-78
2024/04/05 05:06:08;;;;;;;0.20;0.20;;;11.40;1.00;;;;;;4955933;28;20054;-77
2024/04/05 05:08:34;;;;;;;0.20;0.20;;;11.40;1.00;;;;;;4955240;28;20040;-77
2024/04/05 05:11:00;;;;;;;0.10;0.10;;;11.40;1.00;;;;;;4956747;28;20050;-77
2024/04/05 05:13:26;;;;;;;0.85;0.52;;;11.50;1.00;;;;;;4955602;28;20034;-77
2024/04/05 05:15:52;;;;;;;0.32;0.32;;;11.50;1.00;;;;;;4956198;28;20044;-77
2024/04/05 05:18:18;;;;;;;0.68;0.68;;;11.60;99.90;;;;;;4961592;28;20047;-82
2024/04/05 05:20:49;;;;;;;0.15;0.15;;;11.60;99.90;;;;;;4978359;28;20039;-78
2024/04/05 05:23:16;;;;;;;0.28;0.28;;;11.60;99.90;;;;;;4978476;28;20385;-82
2024/04/05 05:25:43;;;;;;;0.38;0.30;;;11.60;99.90;;;;;;4980871;28;20133;-77
2024/04/05 05:28:09;;;;;;;0.10;0.10;;;11.70;99.90;;;;;;4983038;28;20383;-76
2024/04/05 05:30:39;;;;;;;0.17;0.17;;;11.70;99.90;;;;;;4982413;28;20038;-79
2024/04/05 05:33:06;;;;;;;0.32;0.32;;;11.70;99.90;;;;;;4959695;28;20042;-80
2024/04/05 05:35:32;;;;;;;0.88;0.30;;;11.80;99.90;;;;;;4983726;28;20460;-78
2024/04/05 05:37:59;;;;;;;0.25;0.25;;;11.80;99.90;;;;;;4986100;28;20048;-80
2024/04/05 05:40:26;;;;;;;0.38;0.38;;;12.00;99.90;;;;;;4978932;28;20034;-79
2024/04/05 05:42:52;;;;;;;0.57;0.47;;;12.00;99.90;;;;;;4979701;28;20046;-79
2024/04/05 05:45:21;;;;;;;1.15;1.02;;;11.90;99.90;;;;;;4976614;28;20027;-83
2024/04/05 05:47:55;;;;;;;0.28;0.28;;;11.90;99.90;;;;;;4972841;28;20034;-78
2024/04/05 05:50:23;;;;;;;0.35;0.35;;;11.80;99.90;;;;;;4972559;28;20047;-80
2024/04/05 05:52:49;;;;;;;0.10;0.10;;;11.80;99.90;;;;;;4982673;28;20038;-79
2024/04/05 05:55:15;;;;;;;0.47;0.47;;;11.70;99.90;;;;;;4982801;28;20086;-79
2024/04/05 05:57:42;;;;;;;0.20;0.20;;;11.60;99.90;;;;;;4987277;28;20037;-80
2024/04/05 06:00:11;;;;;;;0.10;0.10;;;11.60;99.90;;;;;;4989267;28;20038;-80
2024/04/05 06:02:38;;;;;;;0.40;0.30;;;11.50;99.90;;;;;;4982729;28;20064;-80
2024/04/05 06:05:07;;;;;;;1.02;0.93;;;11.70;99.90;;;;;;4977992;28;20042;-80
2024/04/05 06:07:33;;;;;;;0.28;0.28;;;12.20;99.90;;;;;;4975070;28;20049;-80
2024/04/05 06:09:59;;;;;;;0.75;0.73;;;13.00;99.90;;;;;;4983345;28;20042;-76
2024/04/05 06:12:26;;;;;;;0.40;0.40;;;13.60;25.20;;;;;;4986789;28;20042;-84
2024/04/05 06:14:57;;;;;;;0.38;0.38;;;14.10;1.00;;;;;;4944120;28;20043;-79
2024/04/05 06:17:25;;;;;;;0.55;0.55;;;14.50;99.90;;;;;;4976035;28;20045;-76
2024/04/05 06:19:54;;;;;;;0.10;0.10;;;14.80;99.90;;;;;;4963369;28;20051;-79
2024/04/05 06:22:21;;;;;;;0.50;0.40;;;15.00;99.90;;;;;;4956778;28;20368;-85
2024/04/05 06:24:51;;;;;;;0.20;0.20;;;15.40;99.90;;;;;;4957860;28;20046;-77
2024/04/05 06:27:19;;;;;;;0.43;0.43;;;16.00;99.90;;;;;;4957441;28;20058;-78
2024/04/05 06:29:54;;;;;;;0.60;0.60;;;16.40;30.40;;;;;;4958291;28;20445;-78
2024/04/05 06:32:21;;;;;;;1.35;1.00;;;16.30;1.00;;;;;;4956876;28;20038;-81
2024/04/05 06:34:47;;;;;;;0.80;0.65;;;16.50;1.00;;;;;;4956826;28;20656;-78
2024/04/05 06:37:14;;;;;;;0.43;0.40;;;16.60;1.00;;;;;;4960614;28;20472;-76
2024/04/05 06:39:41;;;;;;;2.28;0.47;;;17.00;1.00;;;;;;4956346;28;20038;-79
2024/04/05 06:42:08;;;;;;;0.20;0.20;;;17.40;99.90;;;;;;4961107;28;20042;-81
2024/04/05 06:44:35;;;;;;;0.28;0.28;;;17.30;99.90;;;;;;4959527;28;20035;-82
2024/04/05 06:47:04;;;;;;;0.22;0.22;;;17.50;99.90;;;;;;4963032;28;20050;-82
2024/04/05 06:49:34;;;;;;;0.63;0.50;;;17.10;99.90;;;;;;4960152;28;20104;-81
2024/04/05 06:52:08;;;;;;;0.30;0.20;;;16.70;99.90;;;;;;4968093;28;20027;-82
2024/04/05 06:54:39;;;;;;;0.20;0.20;;;16.50;1.00;;;;;;4955381;28;20484;-81
2024/04/05 06:57:05;;;;;;;3.60;1.33;;;16.20;99.90;;;;;;4963467;28;20031;-81
2024/04/05 06:59:34;;;;;;;0.10;0.10;;;16.10;1.00;;;;;;4962227;28;20091;-80
2024/04/05 07:02:00;;;;;;;0.10;0.10;;;16.10;99.90;;;;;;4963864;28;20027;-79
2024/04/05 07:04:27;;;;;;;0.10;0.10;;;16.00;99.90;;;;;;4960906;28;20039;-81
2024/04/05 07:06:53;;;;;;;1.33;0.43;;;15.90;99.90;;;;;;4964477;28;20034;-80
2024/04/05 07:09:20;;;;;;;0.10;0.10;;;15.80;1.00;;;;;;4967116;28;20469;-80
2024/04/05 07:11:47;;;;;;;0.10;0.10;;;16.00;1.00;;;;;;4965131;28;20046;-81
2024/04/05 07:14:16;;;;;;;0.13;0.13;;;16.20;99.90;;;;;;4964354;28;20445;-81
2024/04/05 07:16:43;;;;;;;0.98;0.52;;;16.50;99.90;;;;;;4963333;28;20050;-81
2024/04/05 07:19:10;;;;;;;0.20;0.20;;;16.70;99.90;;;;;;4977903;28;20054;-80
2024/04/05 07:21:36;;;;;;;0.30;0.30;;;16.90;99.90;;;;;;4979298;28;20050;-80
2024/04/05 07:24:05;;;;;;;1.95;0.73;;;16.90;99.90;;;;;;4984269;28;20033;-82
2024/04/05 07:26:32;;;;;;;0.80;0.80;;;16.80;99.90;;;;;;4983558;28;20031;-81
2024/04/05 07:28:59;;;;;;;0.65;0.50;;;16.80;99.90;;;;;;4985761;28;20041;-80
2024/04/05 07:31:25;;;;;;;1.38;0.73;;;16.70;99.90;;;;;;4987966;28;20049;-80
2024/04/05 07:33:51;;;;;;;4.75;0.32;;;16.80;99.90;;;;;;4981116;28;20053;-80
2024/04/05 07:36:18;;;;;;;0.20;0.20;;;17.00;96.70;;;;;;4970760;28;20033;-80
2024/04/05 07:38:45;;;;;;;0.75;0.75;;;17.20;78.00;;;;;;4973358;28;20380;-80
2024/04/05 07:41:11;;;;;;;0.52;0.32;;;17.50;36.70;;;;;;4977960;28;20047;-79
2024/04/05 07:43:37;;;;;;;0.20;0.20;;;17.70;6.80;;;;;;4976583;28;20478;-77
2024/04/05 07:46:03;;;;;;;2.25;0.93;;;17.90;1.00;;;;;;4976906;28;20336;-78
2024/04/05 07:48:30;;;;;;;0.65;0.65;;;17.90;1.00;;;;;;4978157;28;20041;-77
2024/04/05 07:50:59;;;;;;;0.20;0.20;;;17.70;1.00;;;;;;4980134;28;20038;-77
2024/04/05 07:53:26;;;;;;;0.10;0.10;;;17.50;5.00;;;;;;4975189;28;20467;-78
2024/04/05 07:55:53;;;;;;;0.13;0.13;;;17.50;1.00;;;;;;4976697;28;20034;-80
2024/04/05 07:58:20;;;;;;;0.15;0.15;;;17.30;1.00;;;;;;4977415;28;20035;-78
2024/04/05 08:00:47;;;;;;;0.10;0.10;;;17.20;1.00;;;;;;4977522;28;20040;-80
2024/04/05 08:03:13;;;;;;;0.20;0.20;;;17.50;4.00;;;;;;4977812;28;20050;-79
2024/04/05 08:05:40;;;;;;;2.08;0.85;;;17.80;1.00;;;;;;4976883;28;20042;-79
2024/04/05 08:08:08;;;;;;;1.20;0.65;;;17.70;1.00;;;;;;4980014;28;20033;-79
2024/04/05 08:10:34;;;;;;;0.10;0.10;;;17.80;1.00;;;;;;4972404;28;20054;-80
2024/04/05 08:13:00;;;;;;;0.60;0.50;;;17.60;1.00;;;;;;4976808;28;20030;-80
2024/04/05 08:15:29;;;;;;;0.10;0.10;;;17.60;1.00;;;;;;4975918;28;20029;-79
2024/04/05 08:17:55;;;;;;;0.30;0.30;;;17.80;1.00;;;;;;4979729;28;20030;-79
2024/04/05 08:20:21;;;;;;;0.55;0.50;;;18.30;1.00;;;;;;4978617;28;20035;-80
2024/04/05 08:22:48;;;;;;;0.75;0.40;;;18.70;1.00;;;;;;4981900;28;20440;-79
2024/04/05 08:25:14;;;;;;;0.95;0.82;;;19.10;1.00;;;;;;4982560;28;20041;-80
2024/04/05 08:27:49;;;;;;;0.20;0.20;;;19.10;1.00;;;;;;4976097;28;20475;-79
2024/04/05 08:30:18;;;;;;;0.20;0.20;;;19.00;99.90;;;;;;4978470;28;20034;-78
2024/04/05 08:32:44;;;;;;;0.45;0.35;;;19.20;99.90;;;;;;4981752;28;20201;-79
2024/04/05 08:35:10;;;;;;;0.60;0.55;;;19.30;99.90;;;;;;4979896;28;20483;-79
2024/04/05 08:37:37;;;;;;;0.40;0.40;;;19.40;99.90;;;;;;4980295;28;20038;-80
2024/04/05 08:40:04;;;;;;;0.98;0.38;;;19.50;99.90;;;;;;4984170;28;20049;-79
2024/04/05 08:42:34;;;;;;;0.28;0.28;;;19.60;99.90;;;;;;4978972;28;20026;-79
2024/04/05 08:45:04;;;;;;;0.30;0.20;;;19.80;99.90;;;;;;4976176;28;20038;-80
2024/04/05 08:47:34;;;;;;;0.20;0.20;;;20.00;99.90;;;;;;4982318;28;20027;-80
2024/04/05 08:50:08;;;;;;;15.25;1.85;;;20.00;99.90;;;;;;4982443;28;20046;-80
2024/04/05 08:52:34;;;;;;;1.08;0.50;;;20.10;99.90;;;;;;4980996;28;20046;-81
2024/04/05 08:55:02;;;;;;;0.60;0.60;;;20.10;99.90;;;;;;4962918;28;20045;-81
2024/04/05 08:57:35;;;;;;;0.52;0.52;;;20.20;99.90;;;;;;4967591;28;20050;-80
2024/04/05 09:00:06;;;;;;;0.60;0.60;;;20.10;99.90;;;;;;4969679;28;20054;-81
2024/04/05 09:02:33;;;;;;;;;;;20.20;99.90;;;;;;4969238;28;20137;-80
2024/04/05 09:05:09;;;;;;;0.20;0.20;;;20.10;99.90;;;;;;4967659;28;19914;-79
2024/04/05 09:07:35;;;;;;;0.75;0.40;;;20.30;99.90;;;;;;4970058;28;20027;-79
2024/04/05 09:10:17;;;;;;;0.20;0.20;;;20.50;99.90;;;;;;4969683;28;20372;-80
2024/04/05 09:12:52;;;;;;;0.13;0.13;;;20.80;99.90;;;;;;4972964;28;20035;-79
2024/04/05 09:15:24;;;;;;;4.78;0.95;;;20.50;99.90;;;;;;4975632;28;20027;-79
2024/04/05 09:17:50;;;;;;;0.25;0.25;;;20.80;99.90;;;;;;4970962;28;20452;-80
2024/04/05 09:20:29;;;;;;;0.20;0.20;;;20.70;99.90;;;;;;4954353;28;20031;-80
2024/04/05 09:23:01;;;;;;;;;;;20.40;99.90;;;;;;4952730;28;20054;-79
2024/04/05 09:25:30;;;;;;;;;;;20.90;99.90;;;;;;4953611;28;19906;-79
2024/04/05 09:28:16;;;;;;;0.20;0.20;;;21.30;99.90;;;;;;4959294;28;19917;-80
2024/04/05 09:30:43;;;;;;;0.10;0.10;;;21.10;99.90;;;;;;4956948;28;20380;-80
2024/04/05 09:33:19;;;;;;;0.20;0.20;;;20.60;99.90;;;;;;4947045;28;20053;-79
2024/04/05 09:35:46;;;;;;;0.28;0.28;;;20.50;99.90;;;;;;4957783;28;20372;-80
2024/04/05 09:38:13;;;;;;;0.20;0.20;;;20.90;99.90;;;;;;4958315;28;20027;-79
2024/04/05 09:40:40;;;;;;;1.13;0.45;;;21.10;99.90;;;;;;4961189;28;20387;-79
2024/04/05 09:43:11;;;;;;;0.20;0.20;;;21.00;99.90;;;;;;4960073;28;20444;-76
2024/04/05 09:45:40;;;;;;;;;;;21.00;99.90;;;;;;4959074;28;20372;-78
2024/04/05 09:48:08;;;;;;;0.15;0.15;;;21.10;99.90;;;;;;4959285;28;19913;-77
2024/04/05 09:50:37;;;;;;;0.30;0.30;;;21.10;99.90;;;;;;4960876;28;20031;-78
2024/04/05 09:53:04;;;;;;;0.95;0.88;;;21.30;99.90;;;;;;4962364;28;20574;-78
2024/04/05 09:55:38;;;;;;;0.22;0.22;;;21.00;99.90;;;;;;4955976;28;20067;-78
2024/04/05 09:58:07;;;;;;;0.40;0.40;;;20.90;99.90;;;;;;4961588;28;20023;-74
2024/04/05 10:00:36;;;;;;;2.00;0.57;;;20.80;99.90;;;;;;4962142;28;20054;-76
2024/04/05 10:03:05;;;;;;;0.20;0.20;;;20.80;99.90;;;;;;4965508;28;20027;-77
2024/04/05 10:05:32;;;;;;;0.30;0.30;;;20.80;99.90;;;;;;4959966;28;20027;-79
2024/04/05 10:08:13;;;;;;;0.20;0.20;;;20.90;99.90;;;;;;4965900;28;20046;-79
2024/04/05 10:10:40;;;;;;;0.40;0.40;;;20.90;99.90;;;;;;4947324;28;20492;-80
2024/04/05 10:13:32;;;;;;;0.25;0.25;;;21.00;99.90;;;;;;4962503;28;20033;-79
2024/04/05 10:16:00;;;;;;;0.45;0.38;;;21.40;99.90;;;;;;4950499;28;20054;-79
2024/04/05 10:18:27;;;;;;;0.22;0.22;;;21.60;99.90;;;;;;4961536;28;20046;-78
2024/04/05 10:21:09;;;;;;;0.20;0.20;;;21.70;99.90;;;;;;4966271;28;20046;-78
2024/04/05 10:23:37;;;;;;;0.10;0.10;;;21.80;99.90;;;;;;4968189;28;20038;-79
2024/04/05 10:26:05;;;;;;;1.08;0.68;;;21.80;99.90;;;;;;4976469;28;20019;-85
2024/04/05 10:28:32;;;;;;;12.15;1.42;;;21.90;99.90;;;;;;4979627;28;20452;-80
2024/04/05 10:31:01;;;;;;;0.47;0.47;;;21.70;99.90;;;;;;4961799;28;20030;-79
2024/04/05 10:33:29;;;;;;;0.25;0.25;;;21.80;99.90;;;;;;4978395;28;20050;-79
2024/04/05 10:35:59;;;;;;;3.72;0.40;;;21.80;99.90;;;;;;4975647;28;20038;-79
2024/04/05 10:38:30;;;;;;;0.20;0.20;;;22.10;99.90;;;;;;4978441;28;20030;-81
2024/04/05 10:41:01;;;;;;;2.35;0.50;;;22.10;99.90;;;;;;4979379;28;20041;-80
2024/04/05 10:43:27;;;;;;;0.73;0.40;;;22.20;99.90;;;;;;4978249;28;20033;-80
2024/04/05 10:45:55;;;;;;;0.63;0.63;;;22.20;99.90;;;;;;4976696;28;20031;-79
2024/04/05 10:48:22;;;;;;;0.10;0.10;;;22.30;99.90;;;;;;4981722;28;20486;-78
2024/04/05 10:50:52;;;;;;;3.38;0.55;;;22.40;99.90;;;;;;4978748;28;20022;-82
2024/04/05 10:53:21;;;;;;;0.43;0.30;;;22.70;99.90;;;;;;4981997;28;20375;-82
2024/04/05 10:55:51;;;;;;;0.22;0.22;;;22.80;99.90;;;;;;4980649;28;20038;-82
2024/04/05 10:58:18;;;;;;;;;;;22.50;99.90;;;;;;4983120;28;20460;-82
2024/04/05 11:00:44;;;;;;;0.20;0.20;;;22.40;99.90;;;;;;4978940;28;19906;-83
2024/04/05 11:03:16;;;;;;;0.38;0.38;;;22.10;99.90;;;;;;4976556;28;20026;-82
2024/04/05 11:05:44;;;;;;;0.10;0.10;;;22.30;99.90;;;;;;4976649;28;20035;-81
2024/04/05 11:08:15;;;;;;;0.20;0.20;;;22.30;99.90;;;;;;4978880;28;20041;-80
2024/04/05 11:10:41;;;;;;;0.25;0.25;;;22.20;99.90;;;;;;4981426;28;20460;-80
2024/04/05 11:13:16;;;;;;;0.40;0.40;;;22.10;99.90;;;;;;4982518;28;20038;-80
2024/04/05 11:15:43;;;;;;;0.25;0.25;;;22.10;99.90;;;;;;4980056;28;20495;-80
2024/04/05 11:18:10;;;;;;;0.10;0.10;;;22.00;99.90;;;;;;4984561;28;20058;-79
2024/04/05 11:20:39;;;;;;;4.63;0.55;;;22.00;99.90;;;;;;4982987;28;20023;-81
2024/04/05 11:23:07;;;;;;;0.20;0.20;;;21.70;99.90;;;;;;4983323;28;20034;-80
2024/04/05 11:25:34;;;;;;;0.32;0.32;;;21.60;99.90;;;;;;4985768;28;20034;-81
2024/04/05 11:28:16;;;;;;;0.70;0.38;;;21.50;99.90;;;;;;4985093;28;20049;-82
2024/04/05 11:30:42;;;;;;;2.70;1.02;;;21.50;99.90;;;;;;4984294;28;20026;-82
2024/04/05 11:33:09;;;;;;;0.20;0.20;;;21.40;99.90;;;;;;4988256;28;20033;-82
2024/04/05 11:35:40;;;;;;;0.20;0.20;;;21.30;99.90;;;;;;4977591;28;20104;-83
2024/04/05 11:38:06;;;;;;;0.20;0.20;;;21.10;99.90;;;;;;4948099;28;20404;-82
2024/04/05 11:40:33;;;;;;;0.20;0.20;;;21.00;99.90;;;;;;4975798;28;20034;-81
2024/04/05 11:43:01;;;;;;;0.28;0.22;;;20.80;99.90;;;;;;4973686;28;20054;-82
2024/04/05 11:45:27;;;;;;;0.20;0.20;;;20.60;99.90;;;;;;4966719;28;20468;-81
2024/04/05 11:47:56;;;;;;;0.10;0.10;;;20.60;99.90;;;;;;4976433;28;20038;-82
2024/04/05 11:50:22;;;;;;;0.20;0.20;;;20.60;99.90;;;;;;4956955;28;20381;-81
2024/04/05 11:52:49;;;;;;;0.80;0.40;;;20.80;99.90;;;;;;4950576;28;20127;-82
2024/04/05 11:55:15;;;;;;;0.20;0.20;;;20.90;99.90;;;;;;4974497;28;20380;-81
2024/04/05 11:57:42;;;;;;;1.20;0.35;;;21.00;99.90;;;;;;4977224;28;20023;-82
2024/04/05 12:00:12;;;;;;;0.30;0.30;;;21.00;99.90;;;;;;4980626;28;20033;-82
2024/04/05 12:02:40;;;;;;;0.28;0.28;;;21.10;99.90;;;;;;4953284;28;20055;-82
2024/04/05 12:05:09;;;;;;;0.20;0.20;;;21.20;99.90;;;;;;4977487;28;20453;-81
2024/04/05 12:07:35;;;;;;;0.50;0.50;;;21.60;99.90;;;;;;4955453;28;20038;-79
2024/04/05 12:10:03;;;;;;;0.20;0.20;;;21.70;99.90;;;;;;4977548;28;20035;-78
2024/04/05 12:12:30;;;;;;;5.25;0.77;;;21.70;99.90;;;;;;4979421;28;20064;-78
2024/04/05 12:14:57;;;;;;;0.20;0.20;;;21.80;99.90;;;;;;4978729;28;20038;-77
2024/04/05 12:17:23;;;;;;;0.20;0.20;;;21.90;99.90;;;;;;4983343;28;20074;-79
2024/04/05 12:19:50;;;;;;;0.20;0.20;;;22.10;99.90;;;;;;4981026;28;20063;-78
2024/04/05 12:22:16;;;;;;;0.25;0.25;;;22.10;99.90;;;;;;4963300;28;20360;-78
2024/04/05 12:24:46;;;;;;;0.30;0.30;;;21.60;99.90;;;;;;4979571;28;20034;-78
2024/04/05 12:27:13;;;;;;;0.30;0.30;;;21.40;99.90;;;;;;4982894;28;20460;-80
2024/04/05 12:29:41;;;;;;;0.22;0.20;;;21.20;99.90;;;;;;4976640;28;20026;-78
2024/04/05 12:32:08;;;;;;;0.45;0.45;;;21.40;99.90;;;;;;4982315;28;20033;-78
2024/04/05 12:34:34;;;;;;;0.20;0.20;;;21.60;99.90;;;;;;4982276;28;20031;-80
2024/04/05 12:37:08;;;;;;;0.43;0.30;;;21.70;99.90;;;;;;4977133;28;20508;-76
2024/04/05 12:39:38;;;;;;;0.20;0.20;;;21.70;99.90;;;;;;4983629;28;20034;-77
2024/04/05 12:42:05;;;;;;;0.10;0.10;;;21.80;99.90;;;;;;4985006;28;20034;-77
2024/04/05 12:44:32;;;;;;;0.22;0.22;;;22.00;99.90;;;;;;4966775;28;20031;-79
2024/04/05 12:46:58;;;;;;;0.30;0.30;;;22.10;99.90;;;;;;4967265;28;20035;-79
2024/04/05 12:49:25;;;;;;;0.10;0.10;;;22.20;99.90;;;;;;4985619;28;20034;-77
2024/04/05 12:51:51;;;;;;;0.20;0.20;;;22.30;99.90;;;;;;4979922;28;20046;-79
2024/04/05 12:54:17;;;;;;;0.20;0.20;;;22.40;99.90;;;;;;4983345;28;20444;-78